createdAt,value
2023-10-01T00:21:06.528Z,83.78
2023-10-01T00:51:10.178Z,84.08
2023-10-01T01:21:13.490Z,84.49
2023-10-01T01:51:17.293Z,84.82
2023-10-01T02:21:20.451Z,85.13
2023-10-01T02:51:23.495Z,85.73
2023-10-01T03:21:27.270Z,85.63
2023-10-01T03:51:30.248Z,85.86
2023-10-01T04:21:34.335Z,85.52
2023-10-01T04:51:37.242Z,86.22
2023-10-01T05:21:40.724Z,85.83
2023-10-01T05:51:43.872Z,86.86
2023-10-01T06:21:47.933Z,87.02
2023-10-01T06:51:51.104Z,86.44
2023-10-01T07:21:54.502Z,85.38
2023-10-01T07:51:57.628Z,84.28
2023-10-01T08:22:00.969Z,82.42
2023-10-01T08:52:04.353Z,78.60
2023-10-01T09:22:07.434Z,76.78
2023-10-01T09:52:10.937Z,75.79
2023-10-01T10:22:14.233Z,71.34
2023-10-01T10:52:20.251Z,69.75
2023-10-01T11:22:23.419Z,69.67
2023-10-01T11:52:27.095Z,67.25
2023-10-01T12:22:30.588Z,67.56
2023-10-01T12:52:34.150Z,65.37
2023-10-01T13:22:37.358Z,64.43
2023-10-01T13:52:40.988Z,67.01
2023-10-01T14:22:44.266Z,68.21
2023-10-01T14:52:47.692Z,69.47
2023-10-01T15:22:51.186Z,69.73
2023-10-01T15:52:54.174Z,71.46
2023-10-01T16:22:58.033Z,71.87
2023-10-01T16:53:00.985Z,73.47
2023-10-01T17:23:05.756Z,73.58
2023-10-01T17:53:08.810Z,75.10
2023-10-01T18:23:11.942Z,75.89
2023-10-01T18:53:15.662Z,77.12
2023-10-01T19:23:19.058Z,78.59
2023-10-01T19:53:23.006Z,80.17
2023-10-01T20:23:26.172Z,80.40
2023-10-01T20:53:29.072Z,80.69
2023-10-01T21:23:32.872Z,81.13
2023-10-01T21:53:36.579Z,81.23
2023-10-01T22:23:40.737Z,81.49
2023-10-01T22:53:44.421Z,81.91
2023-10-01T23:23:47.519Z,82.14
2023-10-01T23:53:50.574Z,82.40
